sensor_id;sensor_type;location;lat;lon;timestamp;P1;durP1;ratioP1;P2;durP2;ratioP2
49340;SDS011;35209;51.050;13.678;2022-09-09T00:03:18;2.97;;;0.80;;
49340;SDS011;35209;51.050;13.678;2022-09-09T00:08:30;0.55;;;0.50;;
49340;SDS011;35209;51.050;13.678;2022-09-09T00:13:48;1.08;;;0.50;;
49340;SDS011;35209;51.050;13.678;2022-09-09T00:19:07;2.25;;;0.50;;
49340;SDS011;35209;51.050;13.678;2022-09-09T00:29:43;0.57;;;0.50;;
49340;SDS011;35209;51.050;13.678;2022-09-09T00:39:59;1.83;;;0.50;;
49340;SDS011;35209;51.050;13.678;2022-09-09T00:45:16;0.93;;;0.50;;
49340;SDS011;35209;51.050;13.678;2022-09-09T00:55:50;1.17;;;0.60;;
49340;SDS011;35209;51.050;13.678;2022-09-09T01:11:36;1.73;;;0.63;;
49340;SDS011;35209;51.050;13.678;2022-09-09T01:16:48;4.05;;;0.60;;
49340;SDS011;35209;51.050;13.678;2022-09-09T01:22:14;2.00;;;0.60;;
49340;SDS011;35209;51.050;13.678;2022-09-09T01:27:26;3.28;;;0.50;;
49340;SDS011;35209;51.050;13.678;2022-09-09T01:37:50;1.55;;;0.60;;
49340;SDS011;35209;51.050;13.678;2022-09-09T01:42:52;1.40;;;0.63;;
49340;SDS011;35209;51.050;13.678;2022-09-09T01:47:55;2.78;;;0.65;;
49340;SDS011;35209;51.050;13.678;2022-09-09T01:53:14;0.80;;;0.50;;
49340;SDS011;35209;51.050;13.678;2022-09-09T02:03:32;1.75;;;0.60;;
49340;SDS011;35209;51.050;13.678;2022-09-09T02:08:45;1.85;;;0.95;;
49340;SDS011;35209;51.050;13.678;2022-09-09T02:13:51;1.77;;;0.70;;
49340;SDS011;35209;51.050;13.678;2022-09-09T02:24:11;3.33;;;0.70;;
49340;SDS011;35209;51.050;13.678;2022-09-09T02:29:25;2.90;;;0.80;;
49340;SDS011;35209;51.050;13.678;2022-09-09T02:34:33;3.92;;;0.98;;
49340;SDS011;35209;51.050;13.678;2022-09-09T02:39:39;0.80;;;0.80;;
49340;SDS011;35209;51.050;13.678;2022-09-09T02:44:45;3.63;;;1.63;;
49340;SDS011;35209;51.050;13.678;2022-09-09T02:55:14;2.70;;;1.40;;
49340;SDS011;35209;51.050;13.678;2022-09-09T03:00:25;2.08;;;1.10;;
49340;SDS011;35209;51.050;13.678;2022-09-09T03:05:33;3.20;;;1.10;;
49340;SDS011;35209;51.050;13.678;2022-09-09T03:10:36;2.35;;;0.93;;
49340;SDS011;35209;51.050;13.678;2022-09-09T03:15:38;3.88;;;1.08;;
49340;SDS011;35209;51.050;13.678;2022-09-09T03:20:42;1.70;;;1.08;;
49340;SDS011;35209;51.050;13.678;2022-09-09T03:25:48;2.60;;;1.60;;
49340;SDS011;35209;51.050;13.678;2022-09-09T03:30:57;3.00;;;1.30;;
49340;SDS011;35209;51.050;13.678;2022-09-09T03:35:59;2.40;;;1.20;;
49340;SDS011;35209;51.050;13.678;2022-09-09T03:41:03;2.42;;;1.13;;
49340;SDS011;35209;51.050;13.678;2022-09-09T03:46:08;2.17;;;1.40;;
49340;SDS011;35209;51.050;13.678;2022-09-09T03:51:10;3.25;;;1.40;;
49340;SDS011;35209;51.050;13.678;2022-09-09T03:56:12;3.33;;;1.40;;
49340;SDS011;35209;51.050;13.678;2022-09-09T04:01:14;1.67;;;1.40;;
49340;SDS011;35209;51.050;13.678;2022-09-09T04:06:19;3.30;;;1.63;;
49340;SDS011;35209;51.050;13.678;2022-09-09T04:11:22;1.75;;;1.25;;
49340;SDS011;35209;51.050;13.678;2022-09-09T04:16:27;2.08;;;1.35;;
49340;SDS011;35209;51.050;13.678;2022-09-09T04:21:28;2.67;;;1.60;;
49340;SDS011;35209;51.050;13.678;2022-09-09T04:26:30;2.20;;;1.48;;
49340;SDS011;35209;51.050;13.678;2022-09-09T04:31:34;6.35;;;1.30;;
49340;SDS011;35209;51.050;13.678;2022-09-09T04:36:36;7.97;;;1.77;;
49340;SDS011;35209;51.050;13.678;2022-09-09T04:41:39;3.70;;;1.60;;
49340;SDS011;35209;51.050;13.678;2022-09-09T04:46:43;4.60;;;2.08;;
49340;SDS011;35209;51.050;13.678;2022-09-09T04:51:48;11.30;;;2.38;;
49340;SDS011;35209;51.050;13.678;2022-09-09T04:56:51;3.90;;;1.83;;
49340;SDS011;35209;51.050;13.678;2022-09-09T05:01:53;3.45;;;2.15;;
49340;SDS011;35209;51.050;13.678;2022-09-09T05:06:56;4.03;;;2.33;;
49340;SDS011;35209;51.050;13.678;2022-09-09T05:11:58;4.90;;;1.77;;
49340;SDS011;35209;51.050;13.678;2022-09-09T05:17:05;3.55;;;1.73;;
49340;SDS011;35209;51.050;13.678;2022-09-09T05:22:09;2.80;;;2.13;;
49340;SDS011;35209;51.050;13.678;2022-09-09T05:27:18;4.05;;;1.63;;
49340;SDS011;35209;51.050;13.678;2022-09-09T05:32:22;6.05;;;1.77;;
49340;SDS011;35209;51.050;13.678;2022-09-09T05:37:25;4.53;;;1.70;;
49340;SDS011;35209;51.050;13.678;2022-09-09T05:42:31;2.30;;;1.20;;
49340;SDS011;35209;51.050;13.678;2022-09-09T05:47:35;1.75;;;1.40;;
49340;SDS011;35209;51.050;13.678;2022-09-09T05:52:42;4.53;;;1.90;;
49340;SDS011;35209;51.050;13.678;2022-09-09T05:57:49;2.58;;;1.25;;
49340;SDS011;35209;51.050;13.678;2022-09-09T06:02:54;5.43;;;1.20;;
49340;SDS011;35209;51.050;13.678;2022-09-09T06:07:56;2.83;;;1.48;;
49340;SDS011;35209;51.050;13.678;2022-09-09T06:12:58;5.03;;;1.95;;
49340;SDS011;35209;51.050;13.678;2022-09-09T06:18:01;2.75;;;1.30;;
49340;SDS011;35209;51.050;13.678;2022-09-09T06:23:10;3.67;;;1.80;;
49340;SDS011;35209;51.050;13.678;2022-09-09T06:28:14;1.50;;;1.08;;
49340;SDS011;35209;51.050;13.678;2022-09-09T06:33:20;2.67;;;1.23;;
49340;SDS011;35209;51.050;13.678;2022-09-09T06:38:22;4.53;;;1.65;;
49340;SDS011;35209;51.050;13.678;2022-09-09T06:43:27;5.10;;;1.15;;
49340;SDS011;35209;51.050;13.678;2022-09-09T06:48:29;2.65;;;1.50;;
49340;SDS011;35209;51.050;13.678;2022-09-09T06:53:32;2.90;;;1.20;;
49340;SDS011;35209;51.050;13.678;2022-09-09T06:58:44;5.97;;;1.75;;
49340;SDS011;35209;51.050;13.678;2022-09-09T07:03:55;3.05;;;1.63;;
49340;SDS011;35209;51.050;13.678;2022-09-09T07:09:02;2.38;;;1.20;;
49340;SDS011;35209;51.050;13.678;2022-09-09T07:14:08;6.07;;;1.73;;
49340;SDS011;35209;51.050;13.678;2022-09-09T07:19:11;3.75;;;1.38;;
49340;SDS011;35209;51.050;13.678;2022-09-09T07:24:14;4.22;;;1.40;;
49340;SDS011;35209;51.050;13.678;2022-09-09T07:29:17;5.10;;;1.55;;
49340;SDS011;35209;51.050;13.678;2022-09-09T07:34:22;2.60;;;1.17;;
49340;SDS011;35209;51.050;13.678;2022-09-09T07:39:25;3.65;;;1.25;;
49340;SDS011;35209;51.050;13.678;2022-09-09T07:44:28;3.15;;;1.52;;
49340;SDS011;35209;51.050;13.678;2022-09-09T07:49:37;3.40;;;1.45;;
49340;SDS011;35209;51.050;13.678;2022-09-09T07:54:41;4.10;;;1.25;;
49340;SDS011;35209;51.050;13.678;2022-09-09T07:59:44;4.97;;;1.10;;
49340;SDS011;35209;51.050;13.678;2022-09-09T08:04:47;3.17;;;1.20;;
49340;SDS011;35209;51.050;13.678;2022-09-09T08:09:51;2.50;;;1.13;;
49340;SDS011;35209;51.050;13.678;2022-09-09T08:14:57;4.28;;;1.40;;
49340;SDS011;35209;51.050;13.678;2022-09-09T08:20:03;2.97;;;1.20;;
49340;SDS011;35209;51.050;13.678;2022-09-09T08:25:07;2.55;;;1.33;;
49340;SDS011;35209;51.050;13.678;2022-09-09T08:30:11;6.95;;;1.25;;
49340;SDS011;35209;51.050;13.678;2022-09-09T08:35:14;4.43;;;1.40;;
49340;SDS011;35209;51.050;13.678;2022-09-09T08:40:18;2.70;;;1.17;;
49340;SDS011;35209;51.050;13.678;2022-09-09T08:45:31;4.63;;;0.98;;
49340;SDS011;35209;51.050;13.678;2022-09-09T08:50:51;2.63;;;1.20;;
49340;SDS011;35209;51.050;13.678;2022-09-09T08:56:00;2.92;;;0.85;;
49340;SDS011;35209;51.050;13.678;2022-09-09T09:11:40;1.65;;;0.60;;
49340;SDS011;35209;51.050;13.678;2022-09-09T09:22:03;2.25;;;0.70;;
49340;SDS011;35209;51.050;13.678;2022-09-09T09:32:20;1.70;;;0.60;;
49340;SDS011;35209;51.050;13.678;2022-09-09T09:37:29;3.53;;;0.80;;
49340;SDS011;35209;51.050;13.678;2022-09-09T09:42:33;1.25;;;0.60;;
49340;SDS011;35209;51.050;13.678;2022-09-09T09:47:35;11.00;;;1.02;;
49340;SDS011;35209;51.050;13.678;2022-09-09T09:52:58;1.80;;;0.80;;
49340;SDS011;35209;51.050;13.678;2022-09-09T09:58:04;1.77;;;0.63;;
49340;SDS011;35209;51.050;13.678;2022-09-09T10:03:19;2.77;;;0.63;;
49340;SDS011;35209;51.050;13.678;2022-09-09T10:08:27;2.83;;;0.80;;
49340;SDS011;35209;51.050;13.678;2022-09-09T10:24:08;2.38;;;0.60;;
49340;SDS011;35209;51.050;13.678;2022-09-09T10:40:15;1.48;;;0.60;;
49340;SDS011;35209;51.050;13.678;2022-09-09T10:56:08;3.17;;;0.60;;
49340;SDS011;35209;51.050;13.678;2022-09-09T11:01:27;2.15;;;0.75;;
49340;SDS011;35209;51.050;13.678;2022-09-09T11:06:44;4.93;;;0.60;;
49340;SDS011;35209;51.050;13.678;2022-09-09T11:11:53;2.13;;;0.60;;
49340;SDS011;35209;51.050;13.678;2022-09-09T11:16:57;2.13;;;0.70;;
49340;SDS011;35209;51.050;13.678;2022-09-09T11:27:20;1.33;;;0.60;;
49340;SDS011;35209;51.050;13.678;2022-09-09T11:43:05;1.48;;;0.80;;
49340;SDS011;35209;51.050;13.678;2022-09-09T11:48:57;2.78;;;0.60;;
49340;SDS011;35209;51.050;13.678;2022-09-09T11:53:47;2.05;;;0.77;;
49340;SDS011;35209;51.050;13.678;2022-09-09T11:59:05;2.83;;;0.77;;
49340;SDS011;35209;51.050;13.678;2022-09-09T12:04:42;1.73;;;0.77;;
49340;SDS011;35209;51.050;13.678;2022-09-09T12:15:02;3.38;;;0.88;;
49340;SDS011;35209;51.050;13.678;2022-09-09T12:31:02;2.42;;;0.80;;
49340;SDS011;35209;51.050;13.678;2022-09-09T12:36:11;3.35;;;1.13;;
49340;SDS011;35209;51.050;13.678;2022-09-09T12:41:19;3.85;;;1.33;;
49340;SDS011;35209;51.050;13.678;2022-09-09T12:46:29;2.75;;;0.98;;
49340;SDS011;35209;51.050;13.678;2022-09-09T12:51:37;3.22;;;1.00;;
49340;SDS011;35209;51.050;13.678;2022-09-09T12:56:39;2.58;;;1.00;;
49340;SDS011;35209;51.050;13.678;2022-09-09T13:01:41;3.10;;;0.90;;
49340;SDS011;35209;51.050;13.678;2022-09-09T13:06:43;2.30;;;1.00;;
49340;SDS011;35209;51.050;13.678;2022-09-09T13:11:49;3.05;;;1.10;;
49340;SDS011;35209;51.050;13.678;2022-09-09T13:16:54;2.65;;;0.90;;
49340;SDS011;35209;51.050;13.678;2022-09-09T13:22:11;1.80;;;0.80;;
49340;SDS011;35209;51.050;13.678;2022-09-09T13:27:35;2.05;;;0.68;;
49340;SDS011;35209;51.050;13.678;2022-09-09T13:32:42;5.43;;;0.82;;
49340;SDS011;35209;51.050;13.678;2022-09-09T13:37:43;1.38;;;0.70;;
49340;SDS011;35209;51.050;13.678;2022-09-09T13:42:45;2.53;;;0.73;;
49340;SDS011;35209;51.050;13.678;2022-09-09T13:47:47;3.42;;;0.93;;
49340;SDS011;35209;51.050;13.678;2022-09-09T13:52:54;1.25;;;0.52;;
49340;SDS011;35209;51.050;13.678;2022-09-09T13:58:00;2.92;;;0.73;;
49340;SDS011;35209;51.050;13.678;2022-09-09T14:03:03;3.50;;;1.30;;
49340;SDS011;35209;51.050;13.678;2022-09-09T14:08:05;2.80;;;0.80;;
49340;SDS011;35209;51.050;13.678;2022-09-09T14:13:08;2.80;;;0.80;;
49340;SDS011;35209;51.050;13.678;2022-09-09T14:18:11;2.22;;;0.80;;
49340;SDS011;35209;51.050;13.678;2022-09-09T14:23:14;2.90;;;0.85;;
49340;SDS011;35209;51.050;13.678;2022-09-09T14:28:17;2.13;;;0.80;;
49340;SDS011;35209;51.050;13.678;2022-09-09T14:33:26;3.88;;;0.60;;
49340;SDS011;35209;51.050;13.678;2022-09-09T14:38:35;1.83;;;0.63;;
49340;SDS011;35209;51.050;13.678;2022-09-09T14:43:41;1.77;;;0.60;;
49340;SDS011;35209;51.050;13.678;2022-09-09T14:48:42;1.80;;;0.60;;
49340;SDS011;35209;51.050;13.678;2022-09-09T14:53:45;2.22;;;0.73;;
49340;SDS011;35209;51.050;13.678;2022-09-09T14:58:48;2.53;;;0.70;;
49340;SDS011;35209;51.050;13.678;2022-09-09T15:03:51;1.65;;;0.68;;
49340;SDS011;35209;51.050;13.678;2022-09-09T15:08:54;2.10;;;0.57;;
49340;SDS011;35209;51.050;13.678;2022-09-09T15:14:00;0.73;;;0.40;;
49340;SDS011;35209;51.050;13.678;2022-09-09T15:19:02;2.13;;;0.50;;
49340;SDS011;35209;51.050;13.678;2022-09-09T15:24:04;3.80;;;0.70;;
49340;SDS011;35209;51.050;13.678;2022-09-09T15:29:09;1.33;;;0.53;;
49340;SDS011;35209;51.050;13.678;2022-09-09T15:34:11;1.30;;;0.40;;
49340;SDS011;35209;51.050;13.678;2022-09-09T15:39:16;2.78;;;0.68;;
49340;SDS011;35209;51.050;13.678;2022-09-09T15:44:18;1.02;;;0.50;;
49340;SDS011;35209;51.050;13.678;2022-09-09T15:49:22;1.77;;;0.50;;
49340;SDS011;35209;51.050;13.678;2022-09-09T15:54:26;1.55;;;0.70;;
49340;SDS011;35209;51.050;13.678;2022-09-09T15:59:29;1.90;;;0.60;;
49340;SDS011;35209;51.050;13.678;2022-09-09T16:04:32;2.75;;;0.88;;
49340;SDS011;35209;51.050;13.678;2022-09-09T16:09:35;2.10;;;1.40;;
49340;SDS011;35209;51.050;13.678;2022-09-09T16:14:38;4.40;;;2.83;;
49340;SDS011;35209;51.050;13.678;2022-09-09T16:19:40;2.90;;;1.02;;
49340;SDS011;35209;51.050;13.678;2022-09-09T16:24:43;1.85;;;1.00;;
49340;SDS011;35209;51.050;13.678;2022-09-09T16:29:46;1.75;;;0.80;;
49340;SDS011;35209;51.050;13.678;2022-09-09T16:34:49;2.92;;;1.17;;
49340;SDS011;35209;51.050;13.678;2022-09-09T16:39:51;2.47;;;1.02;;
49340;SDS011;35209;51.050;13.678;2022-09-09T16:44:56;2.60;;;1.00;;
49340;SDS011;35209;51.050;13.678;2022-09-09T16:49:58;2.55;;;1.00;;
49340;SDS011;35209;51.050;13.678;2022-09-09T16:54:59;1.45;;;1.05;;
49340;SDS011;35209;51.050;13.678;2022-09-09T17:00:02;2.25;;;1.30;;
49340;SDS011;35209;51.050;13.678;2022-09-09T17:05:12;3.53;;;1.60;;
49340;SDS011;35209;51.050;13.678;2022-09-09T17:10:14;3.17;;;1.35;;
49340;SDS011;35209;51.050;13.678;2022-09-09T17:15:16;2.28;;;0.88;;
49340;SDS011;35209;51.050;13.678;2022-09-09T17:20:19;2.30;;;0.90;;
49340;SDS011;35209;51.050;13.678;2022-09-09T17:25:22;1.27;;;0.63;;
49340;SDS011;35209;51.050;13.678;2022-09-09T17:30:24;2.38;;;0.90;;
49340;SDS011;35209;51.050;13.678;2022-09-09T17:35:26;1.17;;;0.63;;
49340;SDS011;35209;51.050;13.678;2022-09-09T17:40:28;3.85;;;1.35;;
49340;SDS011;35209;51.050;13.678;2022-09-09T17:45:30;1.75;;;1.30;;
49340;SDS011;35209;51.050;13.678;2022-09-09T17:50:33;0.90;;;0.80;;
49340;SDS011;35209;51.050;13.678;2022-09-09T17:55:35;3.08;;;1.10;;
49340;SDS011;35209;51.050;13.678;2022-09-09T18:00:37;1.08;;;0.85;;
49340;SDS011;35209;51.050;13.678;2022-09-09T18:05:39;2.40;;;1.00;;
49340;SDS011;35209;51.050;13.678;2022-09-09T18:10:41;1.80;;;1.00;;
49340;SDS011;35209;51.050;13.678;2022-09-09T18:15:45;0.77;;;0.55;;
49340;SDS011;35209;51.050;13.678;2022-09-09T18:21:00;2.30;;;1.00;;
49340;SDS011;35209;51.050;13.678;2022-09-09T18:26:07;1.63;;;0.85;;
49340;SDS011;35209;51.050;13.678;2022-09-09T18:31:12;1.38;;;0.70;;
49340;SDS011;35209;51.050;13.678;2022-09-09T18:36:16;1.60;;;1.00;;
49340;SDS011;35209;51.050;13.678;2022-09-09T18:41:23;2.13;;;0.93;;
49340;SDS011;35209;51.050;13.678;2022-09-09T18:46:32;1.77;;;1.08;;
49340;SDS011;35209;51.050;13.678;2022-09-09T18:51:35;1.15;;;0.80;;
49340;SDS011;35209;51.050;13.678;2022-09-09T18:56:37;1.73;;;1.00;;
49340;SDS011;35209;51.050;13.678;2022-09-09T19:01:40;2.97;;;1.40;;
49340;SDS011;35209;51.050;13.678;2022-09-09T19:06:44;1.20;;;1.10;;
49340;SDS011;35209;51.050;13.678;2022-09-09T19:11:48;3.87;;;1.53;;
49340;SDS011;35209;51.050;13.678;2022-09-09T19:16:49;2.22;;;1.60;;
49340;SDS011;35209;51.050;13.678;2022-09-09T19:21:52;1.98;;;1.33;;
49340;SDS011;35209;51.050;13.678;2022-09-09T19:26:59;4.03;;;1.60;;
49340;SDS011;35209;51.050;13.678;2022-09-09T19:32:02;1.55;;;1.30;;
49340;SDS011;35209;51.050;13.678;2022-09-09T19:37:24;2.65;;;1.45;;
49340;SDS011;35209;51.050;13.678;2022-09-09T19:42:26;2.30;;;1.38;;
49340;SDS011;35209;51.050;13.678;2022-09-09T19:47:30;1.58;;;1.38;;
49340;SDS011;35209;51.050;13.678;2022-09-09T19:52:31;3.08;;;1.83;;
49340;SDS011;35209;51.050;13.678;2022-09-09T19:57:33;3.67;;;1.90;;
49340;SDS011;35209;51.050;13.678;2022-09-09T20:02:35;6.18;;;1.35;;
49340;SDS011;35209;51.050;13.678;2022-09-09T20:07:37;2.47;;;1.38;;
49340;SDS011;35209;51.050;13.678;2022-09-09T20:12:39;1.98;;;1.35;;
49340;SDS011;35209;51.050;13.678;2022-09-09T20:17:40;5.75;;;1.73;;
49340;SDS011;35209;51.050;13.678;2022-09-09T20:22:42;3.55;;;2.13;;
49340;SDS011;35209;51.050;13.678;2022-09-09T20:27:44;3.63;;;1.83;;
49340;SDS011;35209;51.050;13.678;2022-09-09T20:32:45;3.78;;;1.67;;
49340;SDS011;35209;51.050;13.678;2022-09-09T20:37:47;3.45;;;2.05;;
49340;SDS011;35209;51.050;13.678;2022-09-09T20:42:49;3.13;;;2.10;;
49340;SDS011;35209;51.050;13.678;2022-09-09T20:47:51;2.75;;;1.92;;
49340;SDS011;35209;51.050;13.678;2022-09-09T20:52:56;3.97;;;2.35;;
49340;SDS011;35209;51.050;13.678;2022-09-09T20:57:59;2.97;;;2.13;;
49340;SDS011;35209;51.050;13.678;2022-09-09T21:03:01;3.05;;;2.28;;
49340;SDS011;35209;51.050;13.678;2022-09-09T21:08:03;3.88;;;2.38;;
49340;SDS011;35209;51.050;13.678;2022-09-09T21:13:04;2.70;;;2.03;;
49340;SDS011;35209;51.050;13.678;2022-09-09T21:18:06;2.72;;;2.00;;
49340;SDS011;35209;51.050;13.678;2022-09-09T21:23:11;4.32;;;2.35;;
49340;SDS011;35209;51.050;13.678;2022-09-09T21:28:14;5.47;;;2.47;;
49340;SDS011;35209;51.050;13.678;2022-09-09T21:33:17;3.15;;;2.28;;
49340;SDS011;35209;51.050;13.678;2022-09-09T21:38:21;3.78;;;2.47;;
49340;SDS011;35209;51.050;13.678;2022-09-09T21:43:23;5.05;;;2.28;;
49340;SDS011;35209;51.050;13.678;2022-09-09T21:48:25;3.92;;;2.28;;
49340;SDS011;35209;51.050;13.678;2022-09-09T21:53:26;2.90;;;2.10;;
49340;SDS011;35209;51.050;13.678;2022-09-09T21:58:28;3.45;;;2.17;;
49340;SDS011;35209;51.050;13.678;2022-09-09T22:03:30;2.47;;;2.28;;
49340;SDS011;35209;51.050;13.678;2022-09-09T22:08:32;2.75;;;2.22;;
49340;SDS011;35209;51.050;13.678;2022-09-09T22:13:34;3.50;;;2.55;;
49340;SDS011;35209;51.050;13.678;2022-09-09T22:18:36;2.85;;;2.22;;
49340;SDS011;35209;51.050;13.678;2022-09-09T22:23:38;4.28;;;2.60;;
49340;SDS011;35209;51.050;13.678;2022-09-09T22:28:40;3.85;;;2.20;;
49340;SDS011;35209;51.050;13.678;2022-09-09T22:33:41;4.47;;;2.30;;
49340;SDS011;35209;51.050;13.678;2022-09-09T22:38:43;2.05;;;1.85;;
49340;SDS011;35209;51.050;13.678;2022-09-09T22:43:45;3.00;;;1.90;;
49340;SDS011;35209;51.050;13.678;2022-09-09T22:48:47;2.50;;;2.08;;
49340;SDS011;35209;51.050;13.678;2022-09-09T22:53:49;6.80;;;2.17;;
49340;SDS011;35209;51.050;13.678;2022-09-09T22:58:54;2.47;;;2.10;;
49340;SDS011;35209;51.050;13.678;2022-09-09T23:03:56;3.00;;;1.90;;
49340;SDS011;35209;51.050;13.678;2022-09-09T23:09:03;5.45;;;2.40;;
49340;SDS011;35209;51.050;13.678;2022-09-09T23:14:06;3.15;;;2.15;;
49340;SDS011;35209;51.050;13.678;2022-09-09T23:19:11;9.00;;;2.55;;
49340;SDS011;35209;51.050;13.678;2022-09-09T23:24:16;4.63;;;2.13;;
49340;SDS011;35209;51.050;13.678;2022-09-09T23:29:19;3.05;;;2.13;;
49340;SDS011;35209;51.050;13.678;2022-09-09T23:34:21;4.38;;;2.22;;
49340;SDS011;35209;51.050;13.678;2022-09-09T23:39:23;4.00;;;1.80;;
49340;SDS011;35209;51.050;13.678;2022-09-09T23:44:25;2.58;;;1.85;;
49340;SDS011;35209;51.050;13.678;2022-09-09T23:49:27;2.78;;;1.90;;
49340;SDS011;35209;51.050;13.678;2022-09-09T23:54:28;3.20;;;1.63;;
49340;SDS011;35209;51.050;13.678;2022-09-09T23:59:30;7.70;;;1.95;;
